Time;durP1;ratioP1;P1;durP2;ratioP2;P2;SDS_P1;SDS_P2;PMS_P1;PMS_P2;Temp;Humidity;BMP_temperature;BMP_pressure;BME280_temperature;BME280_humidity;BME280_pressure;Samples;Min_cycle;Max_cycle;Signal;HPM_P1;HPM_P2
2023/09/15 00:00:41;;;;;;;7.70;3.20;;;;;;;14.85;100.00;101234.71;217796;1288;142863;-89
2023/09/15 00:05:42;;;;;;;9.80;4.10;;;;;;;14.85;100.00;101243.73;218337;1289;139322;-88
2023/09/15 00:10:44;;;;;;;11.30;3.80;;;;;;;14.84;100.00;101250.15;217981;1291;141613;-88
2023/09/15 00:15:49;;;;;;;8.80;3.80;;;;;;;14.83;100.00;101254.82;218356;1288;139055;-89
2023/09/15 00:20:50;;;;;;;10.40;3.90;;;;;;;14.83;100.00;101256.31;217794;1288;140876;-88
2023/09/15 00:25:54;;;;;;;11.00;4.10;;;;;;;14.83;100.00;101256.08;218347;1289;140498;-89
2023/09/15 00:30:57;;;;;;;9.50;4.40;;;;;;;14.85;100.00;101260.68;217753;1289;143021;-88
2023/09/15 00:35:57;;;;;;;8.70;4.30;;;;;;;14.86;100.00;101258.64;218193;1291;140005;-89
2023/09/15 00:40:58;;;;;;;10.00;4.20;;;;;;;14.89;100.00;101255.09;218202;1289;141525;-89
2023/09/15 00:45:58;;;;;;;8.80;3.70;;;;;;;14.89;100.00;101255.63;218551;1294;138650;-89
2023/09/15 00:50:59;;;;;;;12.10;4.40;;;;;;;14.90;100.00;101256.60;217706;1288;141827;-88
2023/09/15 00:56:00;;;;;;;9.90;4.40;;;;;;;14.89;100.00;101259.36;218469;1288;139513;-88
2023/09/15 01:01:01;;;;;;;9.50;4.30;;;;;;;14.87;100.00;101263.39;218345;1289;141001;-89
2023/09/15 01:06:01;;;;;;;9.40;3.80;;;;;;;14.86;100.00;101261.41;218374;1289;139561;-89
2023/09/15 01:11:04;;;;;;;9.40;3.80;;;;;;;14.84;100.00;101263.30;218065;1288;143360;-89
2023/09/15 01:16:11;;;;;;;12.20;4.90;;;;;;;14.85;100.00;101262.27;218531;1289;139060;-88
2023/09/15 01:21:56;;;;;;;12.60;3.80;;;;;;;14.84;100.00;101264.39;217747;1291;141589;-89
2023/09/15 01:27:22;;;;;;;9.70;3.50;;;;;;;14.84;100.00;101268.75;217613;1294;139484;-89
2023/09/15 01:32:25;;;;;;;10.70;3.90;;;;;;;14.84;100.00;101271.77;217919;1293;141080;-89
2023/09/15 01:37:25;;;;;;;11.20;3.90;;;;;;;14.84;100.00;101270.35;218402;1290;139866;-89
2023/09/15 01:42:26;;;;;;;10.10;3.90;;;;;;;14.85;100.00;101278.50;217719;1289;141079;-89
2023/09/15 01:47:28;;;;;;;11.00;4.30;;;;;;;14.83;100.00;101278.33;218485;1288;96178;-89
2023/09/15 01:52:29;;;;;;;8.20;3.50;;;;;;;14.81;100.00;101279.81;217742;1294;143160;-89
2023/09/15 01:57:29;;;;;;;8.50;3.30;;;;;;;14.79;100.00;101281.48;218263;1294;139635;-89
2023/09/15 02:02:30;;;;;;;6.80;3.00;;;;;;;14.77;100.00;101281.84;217684;1289;141428;-89
2023/09/15 02:07:30;;;;;;;9.80;3.60;;;;;;;14.75;100.00;101283.41;218362;1289;140132;-88
2023/09/15 02:12:30;;;;;;;9.20;3.10;;;;;;;14.74;100.00;101283.88;217829;1289;140540;-89
2023/09/15 02:17:31;;;;;;;7.90;3.00;;;;;;;14.72;100.00;101282.60;218645;1288;96097;-89
2023/09/15 02:22:32;;;;;;;6.60;2.80;;;;;;;14.70;100.00;101288.52;217798;1289;140808;-88
2023/09/15 02:27:32;;;;;;;7.40;2.90;;;;;;;14.69;100.00;101284.31;218325;1289;139378;-88
2023/09/15 02:32:33;;;;;;;8.20;3.40;;;;;;;14.67;100.00;101281.77;217845;1289;142026;-88
2023/09/15 02:37:33;;;;;;;10.10;3.40;;;;;;;14.64;100.00;101287.67;218276;1293;139380;-87
2023/09/15 02:42:35;;;;;;;7.90;2.90;;;;;;;14.63;100.00;101291.63;217825;1285;145111;-90
2023/09/15 02:47:35;;;;;;;7.20;2.80;;;;;;;14.62;100.00;101293.45;218441;1289;140216;-90
2023/09/15 02:52:35;;;;;;;7.70;2.80;;;;;;;14.61;100.00;101292.57;217755;1290;141524;-88
2023/09/15 02:57:36;;;;;;;8.60;3.60;;;;;;;14.62;100.00;101290.11;218122;1290;138803;-88
2023/09/15 03:02:36;;;;;;;7.90;3.00;;;;;;;14.62;100.00;101282.84;217481;1290;142985;-88
2023/09/15 03:07:39;;;;;;;9.50;2.90;;;;;;;14.63;100.00;101284.19;218107;1290;139085;-88
2023/09/15 03:12:39;;;;;;;10.80;3.20;;;;;;;14.64;100.00;101281.58;217538;1290;141095;-88
2023/09/15 03:17:40;;;;;;;7.70;2.60;;;;;;;14.65;100.00;101283.08;218139;1289;139570;-89
2023/09/15 03:22:41;;;;;;;7.30;2.90;;;;;;;14.64;100.00;101283.88;217810;1288;141593;-88
2023/09/15 03:27:41;;;;;;;7.00;2.70;;;;;;;14.62;100.00;101287.43;218159;1289;138921;-89
2023/09/15 03:32:42;;;;;;;9.20;3.20;;;;;;;14.64;100.00;101282.06;217664;1289;141912;-86
2023/09/15 03:37:42;;;;;;;7.80;2.90;;;;;;;14.64;100.00;101281.66;217980;1290;140687;-89
2023/09/15 03:42:42;;;;;;;11.80;4.10;;;;;;;14.64;100.00;101293.06;217538;1290;140430;-88
2023/09/15 03:47:43;;;;;;;8.70;3.00;;;;;;;14.63;100.00;101292.11;218072;1289;139866;-89
2023/09/15 03:52:43;;;;;;;8.80;3.70;;;;;;;14.61;100.00;101292.25;217657;1292;142474;-89
2023/09/15 03:57:44;;;;;;;7.30;3.00;;;;;;;14.59;100.00;101293.81;218086;1290;138926;-87
2023/09/15 04:02:44;;;;;;;7.10;2.90;;;;;;;14.57;100.00;101298.08;217564;1289;142614;-89
2023/09/15 04:07:45;;;;;;;8.60;4.10;;;;;;;14.51;100.00;101296.81;218084;1289;139156;-89
2023/09/15 04:12:46;;;;;;;7.80;3.20;;;;;;;14.46;100.00;101301.30;217528;1290;141401;-89
2023/09/15 04:17:46;;;;;;;8.70;3.70;;;;;;;14.44;100.00;101306.82;218066;1290;139801;-89
2023/09/15 04:22:47;;;;;;;8.20;3.20;;;;;;;14.41;100.00;101315.33;217598;1289;140674;-89
2023/09/15 04:27:47;;;;;;;6.90;3.20;;;;;;;14.37;100.00;101320.60;218090;1289;138885;-89
2023/09/15 04:32:47;;;;;;;8.80;3.80;;;;;;;14.32;100.00;101329.56;217572;1289;143080;-88
2023/09/15 04:37:48;;;;;;;9.20;3.30;;;;;;;14.26;100.00;101329.90;218140;1289;139233;-89
2023/09/15 04:42:49;;;;;;;9.00;3.30;;;;;;;14.20;100.00;101331.56;217588;1290;140621;-88
2023/09/15 04:47:49;;;;;;;8.40;3.20;;;;;;;14.16;100.00;101334.73;218109;1290;139156;-89
2023/09/15 04:52:50;;;;;;;11.30;3.90;;;;;;;14.12;100.00;101339.20;217634;1289;141587;-89
2023/09/15 04:57:51;;;;;;;6.80;3.20;;;;;;;14.05;100.00;101345.30;218036;1289;139321;-89
2023/09/15 05:02:52;;;;;;;7.60;3.10;;;;;;;13.99;100.00;101345.62;217625;1290;141714;-89
2023/09/15 05:07:52;;;;;;;7.80;3.50;;;;;;;13.96;100.00;101348.04;218189;1289;139214;-89
2023/09/15 05:12:52;;;;;;;7.30;2.90;;;;;;;13.95;100.00;101352.14;217768;1289;140746;-88
2023/09/15 05:17:53;;;;;;;7.80;3.20;;;;;;;13.95;100.00;101350.95;218177;1288;140766;-88
2023/09/15 05:22:53;;;;;;;7.80;3.00;;;;;;;13.96;100.00;101353.96;217730;1289;141905;-89
2023/09/15 05:27:53;;;;;;;6.60;2.70;;;;;;;13.97;100.00;101359.92;218147;1290;139011;-89
2023/09/15 05:32:54;;;;;;;8.70;3.00;;;;;;;13.98;100.00;101356.28;217459;1288;141217;-89
2023/09/15 05:37:55;;;;;;;12.60;3.30;;;;;;;14.00;100.00;101362.23;218106;1289;139705;-88
2023/09/15 05:42:57;;;;;;;9.20;3.10;;;;;;;14.01;100.00;101365.48;217582;1290;141979;-90
2023/09/15 05:47:59;;;;;;;8.10;3.20;;;;;;;14.05;100.00;101369.98;218178;1289;139517;-89
2023/09/15 05:53:00;;;;;;;13.00;3.40;;;;;;;14.09;100.00;101376.59;217650;1290;140664;-87
2023/09/15 05:58:00;;;;;;;9.40;3.60;;;;;;;14.14;100.00;101374.74;218116;1289;139868;-87
2023/09/15 06:03:01;;;;;;;15.40;3.50;;;;;;;14.20;100.00;101379.11;217498;1290;140960;-90
2023/09/15 06:08:03;;;;;;;7.70;2.60;;;;;;;14.27;100.00;101385.69;218100;1290;139381;-89
2023/09/15 06:13:04;;;;;;;9.40;3.30;;;;;;;14.35;100.00;101392.02;217683;1289;141983;-88
2023/09/15 06:18:04;;;;;;;13.00;3.20;;;;;;;14.43;100.00;101388.39;218147;1289;139252;-89
2023/09/15 06:23:05;;;;;;;9.50;3.20;;;;;;;14.53;100.00;101391.43;217693;1289;141082;-88
2023/09/15 06:28:06;;;;;;;7.40;2.50;;;;;;;14.61;100.00;101392.30;217970;1289;139179;-89
2023/09/15 06:33:10;;;;;;;8.10;2.60;;;;;;;14.72;99.51;101393.92;217594;1289;142150;-87
2023/09/15 06:38:14;;;;;;;7.90;2.30;;;;;;;14.86;98.82;101392.55;218111;1288;138847;-90
2023/09/15 06:43:14;;;;;;;8.10;2.30;;;;;;;14.96;98.09;101391.20;217292;1289;140887;-89
2023/09/15 06:48:14;;;;;;;10.50;3.70;;;;;;;15.08;97.17;101391.54;218096;1289;138989;-88
2023/09/15 06:53:15;;;;;;;7.00;2.10;;;;;;;15.19;96.62;101388.15;217614;1290;139989;-90
2023/09/15 06:58:16;;;;;;;7.70;2.60;;;;;;;15.30;96.17;101385.30;218068;1289;138814;-89
2023/09/15 07:03:16;;;;;;;7.50;2.10;;;;;;;15.43;95.71;101384.87;217423;1290;141369;-89
2023/09/15 07:08:17;;;;;;;6.00;2.20;;;;;;;15.57;95.03;101388.67;218518;1290;138579;-88
2023/09/15 07:13:18;;;;;;;14.10;2.20;;;;;;;15.70;93.92;101388.59;217693;1289;140985;-88
2023/09/15 07:18:18;;;;;;;6.40;2.00;;;;;;;15.82;91.92;101389.70;218193;1288;139129;-88
2023/09/15 07:23:19;;;;;;;7.30;2.00;;;;;;;15.93;90.31;101386.89;217714;1288;140491;-88
2023/09/15 07:28:20;;;;;;;7.00;2.30;;;;;;;16.03;90.09;101389.08;218067;1289;139252;-89
2023/09/15 07:33:20;;;;;;;9.90;2.60;;;;;;;16.16;88.70;101397.85;217490;1290;140913;-86
2023/09/15 07:38:21;;;;;;;9.10;2.50;;;;;;;16.33;87.54;101399.34;217877;1291;138851;-86
2023/09/15 07:43:21;;;;;;;7.50;2.30;;;;;;;16.47;86.83;101402.11;217493;1289;141469;-87
2023/09/15 07:48:21;;;;;;;9.50;2.10;;;;;;;16.59;86.85;101400.95;218071;1289;139659;-87
2023/09/15 07:53:22;;;;;;;6.30;2.50;;;;;;;16.77;86.01;101404.63;217662;1289;141425;-87
2023/09/15 07:58:23;;;;;;;5.70;2.00;;;;;;;16.92;84.11;101409.17;218081;1289;139063;-88
2023/09/15 08:03:23;;;;;;;7.70;2.30;;;;;;;17.09;83.52;101409.03;217568;1289;142817;-87
2023/09/15 08:08:23;;;;;;;7.00;2.30;;;;;;;17.26;82.90;101411.58;218004;1289;138911;-87
2023/09/15 08:25:36;;;;;;;8.50;2.30;;;;;;;17.83;78.80;101410.16;217487;1290;139278;-86
2023/09/15 08:30:59;;;;;;;;;;;;;;;;;;;;;
2023/09/15 08:36:15;;;;;;;5.20;1.90;;;;;;;18.28;76.81;101411.41;217996;1288;139299;-88
2023/09/15 08:41:43;;;;;;;6.30;2.50;;;;;;;18.60;77.81;101408.17;217157;1290;140201;-87
2023/09/15 08:46:48;;;;;;;11.60;2.40;;;;;;;18.97;74.70;101408.48;218017;1289;138666;-86
2023/09/15 08:51:55;;;;;;;8.60;2.30;;;;;;;19.30;75.45;101405.10;216897;1293;141059;-87
2023/09/15 08:57:12;;;;;;;6.10;2.30;;;;;;;19.79;73.85;101412.29;218005;1289;139414;-87
2023/09/15 09:02:15;;;;;;;6.20;2.20;;;;;;;20.41;71.58;101411.30;217395;1290;140592;-88
2023/09/15 09:07:17;;;;;;;107.60;9.90;;;;;;;21.06;70.24;101416.91;218102;1289;138569;-88
2023/09/15 09:12:27;;;;;;;;;;;;;;;;;;;;;
2023/09/15 09:17:46;;;;;;;4.60;1.70;;;;;;;22.43;64.99;101417.80;218098;1288;107999;-89
2023/09/15 09:22:47;;;;;;;4.10;1.70;;;;;;;23.09;63.13;101419.09;217619;1289;139962;-88
2023/09/15 09:27:47;;;;;;;13.70;1.90;;;;;;;23.61;62.22;101421.94;218100;1289;139455;-88
2023/09/15 09:32:49;;;;;;;4.70;1.70;;;;;;;24.36;60.49;101424.17;217446;1288;141085;-89
2023/09/15 09:37:53;;;;;;;5.30;1.80;;;;;;;24.85;59.06;101425.15;218184;1289;138564;-88
2023/09/15 09:42:57;;;;;;;6.40;2.00;;;;;;;25.48;55.35;101425.02;217565;1290;141674;-88
2023/09/15 09:48:00;;;;;;;4.60;1.80;;;;;;;25.76;54.32;101425.83;218302;1290;96845;-88
2023/09/15 09:53:08;;;;;;;4.20;1.80;;;;;;;26.13;53.53;101421.03;217423;1288;139529;-87
2023/09/15 09:58:20;;;;;;;4.00;1.70;;;;;;;26.39;51.65;101418.16;217981;1289;138232;-88
2023/09/15 10:03:29;;;;;;;3.90;1.60;;;;;;;26.87;50.72;101413.23;217666;1289;139076;-89
2023/09/15 10:08:49;;;;;;;4.20;1.90;;;;;;;27.36;49.96;101411.36;218026;1290;139847;-89
2023/09/15 10:14:04;;;;;;;4.70;1.60;;;;;;;27.68;49.25;101403.48;217417;1290;140007;-88
2023/09/15 10:19:26;;;;;;;;;;;;;;;;;;;;;
2023/09/15 10:29:54;;;;;;;23.60;2.20;;;;;;;27.72;44.05;101393.45;217591;1289;140735;-88
2023/09/15 10:34:57;;;;;;;16.60;2.50;;;;;;;27.68;43.45;101391.55;218150;1290;138709;-88
2023/09/15 10:40:01;;;;;;;3.80;1.50;;;;;;;27.79;45.18;101385.80;217665;1288;140326;-88
2023/09/15 10:45:11;;;;;;;12.70;2.40;;;;;;;28.22;44.34;101380.20;218186;1288;140371;-89
2023/09/15 10:50:12;;;;;;;5.60;1.50;;;;;;;28.33;43.34;101375.16;217604;1293;140403;-88
2023/09/15 10:55:16;;;;;;;5.20;1.70;;;;;;;28.32;42.53;101377.77;218259;1288;138508;-89
2023/09/15 11:00:18;;;;;;;6.20;1.90;;;;;;;28.22;41.87;101379.21;217489;1289;182766;-88
2023/09/15 11:05:19;;;;;;;6.90;1.80;;;;;;;28.11;43.28;101376.02;218095;1288;138463;-89
2023/09/15 11:10:19;;;;;;;5.50;1.80;;;;;;;28.50;43.12;101369.33;217692;1288;140977;-88
2023/09/15 11:15:20;;;;;;;6.80;1.80;;;;;;;28.59;41.74;101364.52;218211;1288;138166;-87
2023/09/15 11:20:21;;;;;;;3.40;1.70;;;;;;;28.26;40.46;101361.47;217607;1289;141090;-88
2023/09/15 11:25:22;;;;;;;12.30;2.10;;;;;;;27.85;42.15;101361.12;218008;1289;138183;-87
2023/09/15 11:30:28;;;;;;;6.00;1.90;;;;;;;28.12;41.98;101354.80;217705;1289;142284;-87
2023/09/15 11:35:33;;;;;;;4.90;1.80;;;;;;;27.97;41.48;101352.76;217914;1288;138113;-87
2023/09/15 11:40:33;;;;;;;34.50;3.30;;;;;;;27.69;41.23;101352.60;217529;1289;141963;-88
2023/09/15 11:45:34;;;;;;;5.90;1.90;;;;;;;27.69;41.79;101346.94;217913;1290;138827;-86
2023/09/15 11:50:35;;;;;;;5.90;2.00;;;;;;;27.50;41.57;101337.64;217551;1289;140019;-87
2023/09/15 11:55:36;;;;;;;6.80;2.00;;;;;;;27.31;41.24;101330.08;218201;1289;139556;-87
2023/09/15 12:00:36;;;;;;;4.30;1.90;;;;;;;27.02;43.34;101324.69;217753;1288;139897;-86
2023/09/15 12:05:36;;;;;;;10.40;2.20;;;;;;;26.89;43.18;101321.44;218352;1290;95782;-87
2023/09/15 12:10:37;;;;;;;5.00;1.80;;;;;;;26.53;43.69;101319.42;217601;1288;140744;-87
2023/09/15 12:15:38;;;;;;;4.60;1.90;;;;;;;26.47;43.78;101314.94;218140;1290;139236;-87
2023/09/15 12:20:39;;;;;;;6.50;2.10;;;;;;;26.22;43.51;101308.12;217589;1290;140263;-85
2023/09/15 12:25:39;;;;;;;7.50;1.80;;;;;;;25.85;44.04;101308.16;218152;1289;138258;-86
2023/09/15 12:30:45;;;;;;;5.00;2.50;;;;;;;25.73;44.93;101301.61;217545;1289;139780;-85
2023/09/15 12:35:48;;;;;;;4.90;2.10;;;;;;;25.70;44.28;101302.85;217995;1289;95978;-86
2023/09/15 12:40:50;;;;;;;6.90;2.00;;;;;;;25.66;45.48;101295.17;217550;1289;140114;-88
2023/09/15 12:45:50;;;;;;;5.60;2.10;;;;;;;25.53;45.23;101296.93;218044;1288;138479;-86
2023/09/15 12:50:51;;;;;;;7.30;1.90;;;;;;;25.55;45.73;101292.27;217490;1290;141433;-87
2023/09/15 12:55:53;;;;;;;5.00;2.20;;;;;;;25.57;45.46;101278.92;218131;1288;138164;-86
2023/09/15 13:00:53;;;;;;;6.60;1.90;;;;;;;25.32;45.41;101274.61;217515;1290;141085;-86
2023/09/15 13:05:54;;;;;;;6.10;1.80;;;;;;;25.18;46.18;101277.73;218232;1290;95971;-87
2023/09/15 13:10:54;;;;;;;9.40;2.10;;;;;;;25.18;46.36;101276.54;217619;1290;140667;-86
2023/09/15 13:15:54;;;;;;;7.90;2.60;;;;;;;25.09;46.33;101273.60;218186;1289;138260;-86
2023/09/15 13:20:55;;;;;;;5.80;2.00;;;;;;;24.96;46.60;101270.16;217324;1289;140976;-86
2023/09/15 13:25:56;;;;;;;4.70;1.90;;;;;;;24.80;46.20;101266.29;218113;1290;139298;-86
2023/09/15 13:30:57;;;;;;;5.90;2.10;;;;;;;24.60;46.27;101260.92;217243;1289;141923;-84
2023/09/15 13:35:57;;;;;;;6.00;2.10;;;;;;;24.45;46.96;101259.05;217857;1290;96313;-88
2023/09/15 13:40:59;;;;;;;5.70;2.10;;;;;;;24.42;46.75;101247.44;217501;1290;142003;-86
2023/09/15 13:45:59;;;;;;;5.10;1.80;;;;;;;24.36;46.83;101245.06;217997;1290;138739;-87
2023/09/15 13:51:00;;;;;;;6.10;2.20;;;;;;;24.26;47.77;101235.31;217500;1290;140467;-87
2023/09/15 13:56:02;;;;;;;5.70;2.00;;;;;;;24.08;47.94;101225.55;218100;1290;139494;-87
2023/09/15 14:01:03;;;;;;;7.50;2.50;;;;;;;24.02;49.04;101217.22;217472;1289;140208;-88
2023/09/15 14:06:04;;;;;;;8.00;2.20;;;;;;;23.96;47.89;101218.61;218327;1288;95943;-87
2023/09/15 14:11:06;;;;;;;6.00;2.20;;;;;;;23.78;47.17;101213.11;217603;1288;140256;-87
2023/09/15 14:16:06;;;;;;;9.60;2.10;;;;;;;23.55;47.09;101211.17;218028;1289;138362;-88
2023/09/15 14:21:07;;;;;;;5.60;1.90;;;;;;;23.47;48.31;101203.87;217736;1288;140719;-87
2023/09/15 14:26:07;;;;;;;5.80;2.00;;;;;;;23.50;48.80;101211.56;218185;1288;139818;-86
2023/09/15 14:31:08;;;;;;;6.00;2.00;;;;;;;23.31;48.30;101206.27;217545;1288;140980;-88
2023/09/15 14:36:09;;;;;;;4.70;1.80;;;;;;;23.16;48.79;101204.91;218285;1290;95961;-88
2023/09/15 14:41:09;;;;;;;5.10;2.00;;;;;;;23.01;47.79;101202.66;217664;1290;140533;-87
2023/09/15 14:46:11;;;;;;;6.50;2.10;;;;;;;22.79;48.12;101197.90;218178;1290;138394;-87
2023/09/15 14:51:11;;;;;;;4.80;1.80;;;;;;;22.65;49.82;101195.14;217616;1290;139962;-87
2023/09/15 14:56:12;;;;;;;5.90;1.90;;;;;;;22.51;50.03;101191.67;218178;1290;138404;-88
2023/09/15 15:01:12;;;;;;;4.80;1.80;;;;;;;22.40;49.60;101188.30;217680;1288;140911;-87
2023/09/15 15:06:12;;;;;;;6.40;2.40;;;;;;;22.35;49.92;101186.27;218406;1289;96255;-86
2023/09/15 15:11:13;;;;;;;5.00;1.90;;;;;;;22.20;49.74;101187.61;217729;1288;139913;-86
2023/09/15 15:16:15;;;;;;;5.20;1.90;;;;;;;22.08;51.20;101189.58;218235;1288;138170;-87
2023/09/15 15:21:16;;;;;;;5.20;2.30;;;;;;;21.91;50.37;101189.89;217507;1290;140568;-87
2023/09/15 15:26:16;;;;;;;6.80;1.70;;;;;;;21.78;50.37;101184.11;218209;1288;139168;-86
2023/09/15 15:31:17;;;;;;;5.20;1.70;;;;;;;21.64;50.94;101184.73;217670;1292;143209;-88
2023/09/15 15:36:18;;;;;;;4.50;1.80;;;;;;;21.46;50.55;101180.41;218221;1294;96151;-86
2023/09/15 15:41:18;;;;;;;7.50;1.90;;;;;;;21.34;51.31;101178.56;217581;1290;141986;-87
2023/09/15 15:46:20;;;;;;;5.30;1.70;;;;;;;21.22;51.51;101180.03;218182;1293;139979;-87
2023/09/15 15:51:20;;;;;;;4.20;1.80;;;;;;;21.10;52.16;101177.55;217630;1290;140332;-87
2023/09/15 15:56:21;;;;;;;7.80;2.00;;;;;;;20.94;52.26;101173.86;218288;1290;138379;-86
2023/09/15 16:01:22;;;;;;;6.80;1.70;;;;;;;20.85;52.75;101170.35;217589;1291;140580;-87
2023/09/15 16:06:22;;;;;;;4.70;1.60;;;;;;;20.73;52.67;101175.05;218227;1290;95979;-86
2023/09/15 16:11:23;;;;;;;5.60;1.80;;;;;;;20.62;53.15;101173.73;217663;1289;141115;-87
2023/09/15 16:16:23;;;;;;;4.90;1.90;;;;;;;20.51;53.13;101181.45;218138;1289;136987;-87
2023/09/15 16:21:24;;;;;;;5.60;1.70;;;;;;;20.39;53.34;101188.13;217838;1290;138740;-86
2023/09/15 16:26:24;;;;;;;4.20;1.60;;;;;;;20.26;54.16;101190.09;218173;1290;139170;-86
2023/09/15 16:31:24;;;;;;;6.20;1.70;;;;;;;20.12;54.27;101186.88;217554;1290;140697;-87
2023/09/15 16:36:25;;;;;;;5.90;1.70;;;;;;;20.02;54.74;101186.77;218308;1289;96832;-87
2023/09/15 16:41:27;;;;;;;7.20;2.00;;;;;;;19.89;54.82;101190.27;217716;1290;140376;-87
2023/09/15 16:46:28;;;;;;;6.30;2.20;;;;;;;19.76;55.55;101186.04;218193;1288;138602;-87
2023/09/15 16:51:29;;;;;;;6.50;1.80;;;;;;;19.62;56.13;101182.33;217640;1288;140532;-87
2023/09/15 16:56:29;;;;;;;6.60;1.60;;;;;;;19.45;56.77;101185.98;218140;1289;139870;-87
2023/09/15 17:01:30;;;;;;;4.30;1.60;;;;;;;19.26;57.45;101186.88;217651;1288;140687;-86
2023/09/15 17:06:30;;;;;;;4.70;1.80;;;;;;;19.12;57.52;101195.39;218269;1289;96166;-87
2023/09/15 17:11:31;;;;;;;7.40;1.70;;;;;;;18.93;58.12;101195.92;217716;1288;139840;-87
2023/09/15 17:16:31;;;;;;;5.00;1.90;;;;;;;18.74;58.49;101194.29;218192;1292;137988;-87
2023/09/15 17:21:32;;;;;;;7.30;2.40;;;;;;;18.54;58.75;101196.23;217601;1290;140946;-87
2023/09/15 17:26:45;;;;;;;6.90;2.50;;;;;;;18.38;58.35;101196.62;218148;1290;138807;-86
2023/09/15 17:31:46;;;;;;;5.40;1.90;;;;;;;18.21;57.55;101197.05;217614;1291;139877;-87
2023/09/15 17:36:46;;;;;;;5.80;2.20;;;;;;;18.10;57.30;101200.08;218231;1293;138673;-86
2023/09/15 17:41:47;;;;;;;7.10;1.70;;;;;;;17.97;56.22;101200.65;218054;1289;139716;-86
2023/09/15 17:46:47;;;;;;;7.00;1.90;;;;;;;17.87;56.33;101206.29;218317;1291;138761;-86
2023/09/15 17:51:48;;;;;;;8.20;1.80;;;;;;;17.76;56.31;101205.39;217675;1289;140485;-86
2023/09/15 17:56:50;;;;;;;7.10;1.80;;;;;;;17.64;55.88;101200.21;218142;1291;138324;-86
2023/09/15 18:01:50;;;;;;;5.20;2.10;;;;;;;17.54;55.68;101203.61;217671;1292;141141;-85
2023/09/15 18:06:51;;;;;;;6.50;1.90;;;;;;;17.46;55.83;101203.71;218225;1290;138123;-85
2023/09/15 18:11:51;;;;;;;5.50;2.00;;;;;;;17.36;55.88;101210.98;217727;1292;141480;-86
2023/09/15 18:16:52;;;;;;;5.70;1.80;;;;;;;17.27;56.45;101213.23;218169;1288;137985;-87
2023/09/15 18:21:54;;;;;;;7.10;2.10;;;;;;;17.18;56.85;101212.23;217722;1291;139900;-85
2023/09/15 18:26:55;;;;;;;10.40;1.90;;;;;;;17.10;56.96;101219.25;218151;1290;138957;-87
2023/09/15 18:31:56;;;;;;;11.60;2.20;;;;;;;16.99;57.41;101217.69;217488;1290;140658;-85
2023/09/15 18:36:58;;;;;;;5.50;2.40;;;;;;;16.91;57.67;101223.11;218143;1294;138506;-85
2023/09/15 18:41:59;;;;;;;5.50;2.00;;;;;;;16.83;58.15;101219.95;217736;1290;140434;-86
2023/09/15 18:46:59;;;;;;;10.60;2.10;;;;;;;16.75;58.49;101219.33;218201;1289;139175;-87
2023/09/15 18:51:59;;;;;;;7.20;2.20;;;;;;;16.66;58.70;101214.02;217650;1291;140929;-86
2023/09/15 18:57:00;;;;;;;7.50;2.10;;;;;;;16.60;58.75;101211.31;218318;1289;137014;-86
2023/09/15 19:02:02;;;;;;;4.10;1.80;;;;;;;16.55;58.92;101210.85;217653;1289;141149;-86
2023/09/15 19:07:03;;;;;;;6.40;2.30;;;;;;;16.50;59.31;101214.98;218158;1289;139761;-86
2023/09/15 19:12:04;;;;;;;8.00;2.20;;;;;;;16.45;59.64;101216.02;217832;1290;141328;-86
2023/09/15 19:17:05;;;;;;;7.70;2.10;;;;;;;16.39;59.98;101211.23;218175;1290;139026;-85
2023/09/15 19:22:05;;;;;;;7.40;2.30;;;;;;;16.34;60.36;101214.63;217643;1289;141815;-86
2023/09/15 19:27:06;;;;;;;5.90;2.20;;;;;;;16.29;60.82;101217.02;218214;1293;138554;-86
2023/09/15 19:32:06;;;;;;;8.80;2.50;;;;;;;16.23;60.93;101218.98;217703;1289;141075;-86
2023/09/15 19:37:07;;;;;;;6.70;2.50;;;;;;;16.17;61.56;101223.29;218271;1289;138165;-86
2023/09/15 19:42:07;;;;;;;7.00;2.40;;;;;;;16.09;62.08;101225.96;217859;1289;139897;-86
2023/09/15 19:47:08;;;;;;;8.30;2.70;;;;;;;16.02;62.59;101221.11;218168;1289;138753;-86
2023/09/15 19:52:09;;;;;;;9.20;2.90;;;;;;;15.93;63.02;101211.98;217686;1289;142400;-86
2023/09/15 19:57:09;;;;;;;11.10;3.10;;;;;;;15.85;63.64;101214.81;218129;1289;138198;-86
2023/09/15 20:02:11;;;;;;;7.40;2.90;;;;;;;15.74;63.81;101212.02;217632;1291;141138;-86
2023/09/15 20:07:11;;;;;;;7.50;2.70;;;;;;;15.66;64.46;101217.54;218204;1288;138541;-87
2023/09/15 20:12:12;;;;;;;7.90;3.20;;;;;;;15.55;64.84;101210.37;218044;1290;141191;-86
2023/09/15 20:17:12;;;;;;;8.90;2.60;;;;;;;15.44;65.25;101213.42;218349;1292;136930;-86
2023/09/15 20:22:13;;;;;;;7.80;2.50;;;;;;;15.35;65.86;101218.92;217669;1289;139967;-87
2023/09/15 20:27:13;;;;;;;7.30;3.20;;;;;;;15.28;66.31;101221.48;218160;1289;139040;-86
2023/09/15 20:32:14;;;;;;;7.70;2.80;;;;;;;15.21;66.72;101221.30;217533;1291;140589;-87
2023/09/15 20:37:14;;;;;;;7.50;2.70;;;;;;;15.13;67.03;101219.35;218215;1289;138408;-87
2023/09/15 20:42:15;;;;;;;8.40;2.80;;;;;;;15.04;67.41;101216.45;217755;1290;204887;-87
2023/09/15 20:47:16;;;;;;;7.20;3.00;;;;;;;14.97;67.92;101212.30;218196;1289;138833;-88
2023/09/15 20:52:16;;;;;;;7.10;2.90;;;;;;;14.89;68.45;101212.41;217592;1288;141600;-88
2023/09/15 20:57:16;;;;;;;10.80;3.10;;;;;;;14.82;69.06;101207.38;218287;1289;138443;-87
2023/09/15 21:02:17;;;;;;;11.30;3.30;;;;;;;14.76;69.43;101204.64;217660;1290;142013;-87
2023/09/15 21:07:17;;;;;;;7.90;2.70;;;;;;;14.70;69.81;101205.64;218190;1289;138568;-86
2023/09/15 21:12:18;;;;;;;9.40;2.80;;;;;;;14.64;70.19;101202.35;217813;1289;143191;-86
2023/09/15 21:17:18;;;;;;;6.90;2.70;;;;;;;14.59;70.51;101205.16;218436;1289;138302;-86
2023/09/15 21:22:19;;;;;;;7.30;2.90;;;;;;;14.55;70.79;101205.77;217646;1289;140041;-87
2023/09/15 21:27:19;;;;;;;7.20;2.90;;;;;;;14.50;71.26;101205.57;218336;1290;138227;-86
2023/09/15 21:32:20;;;;;;;8.80;3.30;;;;;;;14.46;71.76;101204.42;217632;1290;142551;-88
2023/09/15 21:37:20;;;;;;;6.80;3.20;;;;;;;14.41;72.06;101202.73;218130;1289;139117;-87
2023/09/15 21:42:21;;;;;;;8.00;3.10;;;;;;;14.38;72.35;101200.16;217787;1288;141279;-87
2023/09/15 21:47:22;;;;;;;11.40;3.50;;;;;;;14.35;72.56;101201.81;218136;1290;138069;-87
2023/09/15 21:52:23;;;;;;;10.10;3.10;;;;;;;14.31;72.84;101199.71;217603;1289;140891;-87
2023/09/15 21:57:23;;;;;;;10.60;3.30;;;;;;;14.26;73.09;101191.61;218067;1289;139830;-87
2023/09/15 22:02:24;;;;;;;10.10;2.90;;;;;;;14.22;73.42;101189.68;217621;1288;142707;-87
2023/09/15 22:07:25;;;;;;;8.40;2.90;;;;;;;14.18;73.78;101187.95;218156;1289;139465;-87
2023/09/15 22:12:25;;;;;;;8.00;3.00;;;;;;;14.14;73.95;101190.61;217687;1289;141610;-87
2023/09/15 22:17:26;;;;;;;10.60;3.50;;;;;;;14.11;74.16;101191.14;218147;1288;138914;-87
2023/09/15 22:22:27;;;;;;;10.00;3.00;;;;;;;14.08;74.49;101188.50;217612;1289;141903;-86
2023/09/15 22:27:27;;;;;;;7.40;2.70;;;;;;;14.04;74.83;101190.99;218161;1289;139142;-87
2023/09/15 22:32:28;;;;;;;9.20;3.50;;;;;;;14.00;75.09;101180.83;217613;1289;140978;-87
2023/09/15 22:37:28;;;;;;;9.50;3.80;;;;;;;13.98;75.10;101187.13;218079;1289;139356;-87
2023/09/15 22:42:28;;;;;;;10.30;3.00;;;;;;;13.94;75.38;101186.46;217777;1288;141700;-87
2023/09/15 22:47:29;;;;;;;9.30;3.40;;;;;;;13.88;75.91;101183.33;218534;1289;139947;-87
2023/09/15 22:52:30;;;;;;;8.40;3.40;;;;;;;13.83;76.05;101176.00;217557;1290;141018;-87
2023/09/15 22:57:30;;;;;;;7.90;2.50;;;;;;;13.80;76.71;101172.09;217984;1290;164324;-87
2023/09/15 23:02:31;;;;;;;9.40;3.40;;;;;;;13.76;76.79;101168.19;217768;1289;140634;-87
2023/09/15 23:07:31;;;;;;;8.10;3.10;;;;;;;13.72;77.13;101168.07;218157;1289;139994;-87